• Join FlightAware (Why Join?)
  • Login
  • US Flag 
01:37PM EDT


 

Airport Tracker/Info


-or-


 

Live Flight TrackerFlight Track Log ✈ N440DM ✈ 06-May-2013 ✈ KCAK - KFXE

Flight Track Log - Related Links

Times and Time Zones

All times are in EDT time to prevent confusion due to time zone crossing. See the N440DM flight status page for this flight to view local times or setup timezone preferences in your user account.

Time Position Orientation Groundspeed Altitude Reporting Facility
EDT Latitude Longitude Course Direction KTS MPH feet Rate Location/Type
02:24PM 40.4828 -81.4675 182° South 307 353 16,300  Level Cleveland Center
02:25PM 40.3303 -81.3834 176° South  Level Estimated
02:26PM 40.2328 -81.3735 176° South  Level Estimated
02:26PM 40.2908 -81.4703 181° South 366 421 21,100  Level Cleveland Center
02:27PM 40.1354 -81.3636 176° South  Level Estimated
02:27PM 40.1803 -81.4772 183° South 379 436 24,500  Level Cleveland Center
02:27PM 40.1114 -81.4733 178° South 397 457 26,600 3,180 Climbing Indianapolis Center
02:28PM 39.9989 -81.4686 178° South 399 459 29,400 2,640 Climbing Indianapolis Center
02:30PM 39.7617 -81.4592 178° South 409 471 34,900 2,640 Climbing Indianapolis Center
02:31PM 39.6575 -81.4556 178° South 405 466 37,600 2,220 Climbing Indianapolis Center
02:32PM 39.5456 -81.4500 178° South 401 461 39,500 720 Climbing Indianapolis Center
02:34PM 39.4189 -81.4358 175° South  Level Estimated
02:34PM 39.2908 -81.4403 175° South 420 483 40,000  Level Indianapolis Center
02:36PM 39.1707 -81.4267 175° South  Level Estimated
02:36PM 39.0650 -81.4314 175° South 403 464 40,000  Level Indianapolis Center
02:37PM 38.9492 -81.4275 179° South 412 474 40,000  Level Indianapolis Center
02:38PM 38.8306 -81.4233 178° South 421 484 40,000  Level Indianapolis Center
02:39PM 38.6922 -81.4211 179° South 428 493 40,000  Level Indianapolis Center
02:40PM 38.5828 -81.4156 178° South 430 495 40,000  Level Indianapolis Center
02:42PM 38.4656 -81.4108 178° South 419 482 40,000  Level Indianapolis Center
02:44PM 38.2158 -81.4014 178° South 407 468 40,000  Level Indianapolis Center
02:45PM 38.1003 -81.3992 179° South 412 474 40,000  Level Indianapolis Center
02:47PM 37.8681 -81.3903 178° South 418 481 40,000  Level Indianapolis Center
02:48PM 37.7442 -81.3853 178° South 417 480 40,000  Level Indianapolis Center
02:49PM 37.6314 -81.3817 179° South 416 479 40,000  Level Indianapolis Center
02:50PM 37.5178 -81.3772 178° South 419 482 40,000  Level Indianapolis Center
02:51PM 37.3836 -81.3731 179° South 415 478 40,000  Level Indianapolis Center
02:52PM 37.2614 -81.3675 178° South 414 476 40,000  Level Indianapolis Center
02:55PM 36.9178 -81.3036 172° South 413 475 40,000  Level Indianapolis Center
02:56PM 36.7758 -81.2786 172° South 420 483 40,000  Level Atlanta Center
02:57PM 36.6669 -81.2592 172° South 410 472 40,000  Level Atlanta Center
02:58PM 36.5483 -81.2608 181° South 416 479 40,000  Level Atlanta Center
02:59PM 36.4461 -81.2617 180° South 416 479 40,000  Level Atlanta Center
03:00PM 36.3292 -81.2581 179° South 422 486 40,000  Level Atlanta Center
03:03PM 35.9808 -81.2519 179° South 422 486 40,000  Level Atlanta Center
03:04PM 35.8639 -81.2508 180° South 422 486 40,000  Level Atlanta Center
03:05PM 35.7344 -81.2503 180° South 417 480 40,000  Level Atlanta Center
03:06PM 35.6133 -81.2467 179° South 430 495 40,000  Level Atlanta Center
03:08PM 35.4585 -81.2972 195° South  Level FlightAware Approximate
03:08PM 35.3819 -81.2444 195° South 436 502 40,000  Level Atlanta Center
03:09PM 35.2650 -81.2433 180° South 430 495 40,000  Level Atlanta Center
03:10PM 35.1439 -81.2422 180° South 430 495 40,000  Level Atlanta Center
03:12PM 34.9837 -81.2476 182° South  Level FlightAware Approximate
03:12PM 34.8853 -81.2400 182° South 431 496 40,000  Level Jacksonville Center
03:13PM 34.7644 -81.2372 179° South 431 496 40,000  Level Jacksonville Center
03:15PM 34.6139 -81.2500 184° South  Level FlightAware Approximate
03:15PM 34.5392 -81.2342 184° South 441 507 40,000  Level Jacksonville Center
03:16PM 34.4158 -81.2289 178° South 441 507 40,000  Level Jacksonville Center
03:17PM 34.2947 -81.2261 179° South 441 507 40,000  Level Jacksonville Center
03:19PM 34.1443 -81.2153 180° South  Level FlightAware Approximate
03:19PM 34.0444 -81.2158 180° South 436 502 40,000  Level Jacksonville Center
03:21PM 33.8923 -81.2142 179° South  Level FlightAware Approximate
03:21PM 33.8022 -81.2106 179° South 436 502 40,000  Level Jacksonville Center
03:22PM 33.6939 -81.2125 181° South 436 502 40,000  Level Jacksonville Center
03:23PM 33.5747 -81.2097 179° South 436 502 40,000  Level Jacksonville Center
03:24PM 33.4536 -81.2072 180° South 441 507 40,000  Level Jacksonville Center
03:25PM 33.4225 -81.2083 180° South  Level FlightAware Approximate
03:25PM 33.3325 -81.2019 178° South 436 502 40,000  Level Jacksonville Center
03:26PM 33.2136 -81.2017 180° South 436 502 40,000  Level Jacksonville Center
03:27PM 33.0925 -81.1967 179° South 436 502 40,000  Level Jacksonville Center
03:29PM 32.9403 -81.1976 180° South  Level FlightAware Approximate
03:30PM 32.7269 -81.1886 179° South 436 502 40,000  Level Jacksonville Center
03:32PM 32.5762 -81.1635 172° South  Level Estimated
03:34PM 32.2406 -81.1781 172° South 446 513 40,000  Level Jacksonville Center
03:35PM 32.1194 -81.1731 178° South 441 507 40,000  Level Jacksonville Center
03:36PM 32.0003 -81.1703 179° South 436 502 40,000  Level Jacksonville Center
03:38PM 31.8481 -81.1681 179° South  Level FlightAware Approximate
03:38PM 31.7622 -81.1675 179° South 436 502 40,000  Level Jacksonville Center
03:39PM 31.7946 -81.0348 172° South  Level Estimated
03:40PM 31.6100 -81.1653 179° South  Level FlightAware Approximate
03:40PM 31.6829 -81.0166 172° South  Level Estimated
03:40PM 31.5136 -81.1600 179° South 443 510 40,000  Level Jacksonville Center
03:41PM 31.4050 -81.1569 179° South 438 504 40,000  Level Jacksonville Center
03:42PM 31.2736 -81.1569 180° South 438 504 40,000  Level Jacksonville Center
03:43PM 31.1544 -81.1544 179° South 438 504 40,000  Level Jacksonville Center
03:45PM 31.0023 -81.1533 180° South  Level FlightAware Approximate
03:45PM 30.9144 -81.1467 180° South 438 504 40,000  Level Jacksonville Center
03:47PM 30.7623 -81.1481 180° South  Level FlightAware Approximate
03:47PM 30.6742 -81.1414 180° South 432 497 40,000  Level Jacksonville Center
03:48PM 30.5550 -81.1389 179° South 437 503 40,000 -60 Level Jacksonville Center
03:50PM 30.4027 -81.1440 178° South  Level FlightAware Approximate
03:50PM 30.3211 -81.1358 178° South 437 503 39,900  Level Jacksonville Center
03:52PM 30.1690 -81.1304 178° South  Level FlightAware Approximate
03:52PM 30.0867 -81.0922 178° South 432 497 40,000  Level Jacksonville Center
03:54PM 29.8825 -80.9900 157° South 445 512 40,000  Level Miami Center
03:56PM 29.7230 -81.0202 189° South  Level FlightAware Approximate
03:56PM 29.6583 -80.8861 189° South 440 506 40,000  Level Miami Center
03:57PM 29.5453 -80.8342 158° South 440 506 40,000  Level Miami Center
03:58PM 29.4194 -80.7794 159° South 440 506 40,000  Level Miami Center
03:59PM 29.3083 -80.7256 157° South 440 506 40,000  Level Miami Center
04:00PM 29.1950 -80.6764 159° South 440 506 40,000  Level Miami Center
04:01PM 29.0858 -80.6228 157° South 435 501 40,000  Level Miami Center
04:02PM 28.9744 -80.5717 158° South 435 501 40,000  Level Miami Center
04:04PM 28.8326 -80.4918 160° South  Level FlightAware Approximate
04:05PM 28.6450 -80.4067 160° South 429 494 40,000  Level Miami Center
04:06PM 28.5494 -80.3069 137° Southeast 445 512 39,800 -900 Descending Miami Center
04:07PM 28.4406 -80.2328 149° Southeast 457 526 38,300 -1,620 Descending Miami Center
04:09PM 28.3494 -80.0832 168° South  Level FlightAware Approximate
04:09PM 28.1964 -80.1406 168° South 468 539 35,100  Level Miami Center
04:11PM 28.0386 -80.1430 164° South  Level Estimated
04:15PM 27.4578 -79.8386 110° East 468 539 25,000  Level Miami Center
04:17PM 27.3116 -79.7719 158° South  Level FlightAware Approximate
04:18PM 27.2682 -80.1547 166° South  Level Estimated
04:18PM 27.1031 -79.7128 158° South 451 519 19,100  Level Miami Center
04:19PM 27.1582 -80.1563 165° South  Level Estimated
04:20PM 27.1196 -80.0405 110° East  Level FlightAware Approximate
04:20PM 26.8664 -79.6442 165° South 426 490 16,500  Level Miami Center
04:21PM 26.7656 -79.6719 194° South 400 460 14,300 -2,700 Descending Miami Center
04:22PM 26.6644 -79.7231 204° Southwest 381 438 11,200 -3,000 Descending Miami Center
04:23PM 26.5842 -79.7628 204° Southwest 359 413 8,400 -1,620 Descending Miami Center
04:24PM 26.5019 -79.8025 203° Southwest 318 366 8,000 -360 Descending Miami Center
04:25PM 26.4514 -79.8244 201° Southwest 278 320 7,900  Descending Miami Center
04:25PM 26.4364 -79.8336 209° Southwest 290 334 8,000  Climbing Miami Center
04:26PM 26.3839 -79.8600 204° Southwest 273 314 7,900 -420 Descending Miami Center
04:26PM 26.3647 -79.8733 212° Southwest 273 314 7,600 -1,680 Descending Miami Center
04:27PM 26.3261 -79.9164 225° Southwest 264 304 6,200 -1,740 Descending Miami Center
04:27PM 26.3197 -79.9278 238° Southwest 268 308 5,900 -1,920 Descending Miami Center
04:28PM 26.2914 -79.9875 242° Southwest 259 298 4,300 -1,080 Descending Miami Center
04:30PM 26.2678 -80.1119 258° West 163 188 3,000 -600 Descending Miami Center
04:31PM 26.2642 -80.1697 266° West 177 204 2,500 -600 Descending Miami Center
04:31PM 26.2661 -80.1789 283° West 178 205 2,300 -480 Descending Miami Center
04:32PM 26.2608 -80.2253 263° West 163 188 2,000 -660 Descending Miami Center
04:34PM 26.1973 -80.1707 90° East  Level Estimated
04:34PM 26.1922 -80.2139 90° East 180 207 600  Level Miami Center
04:36PM 26.1833 -80.1667 90° East  Level FlightAware Approximate
04:43PM 26.1973 -80.1707 90° East  Level Estimated
04:44PM 26.1973 -80.1707 90° East  Level Estimated
04:45PM 26.1973 -80.1707 90° East  Level Estimated
04:46PM 26.1973 -80.1707 90° East  Level Estimated
04:47PM 26.1973 -80.1707 90° East  Level Estimated
04:48PM 26.1973 -80.1707 90° East  Level Estimated
04:49PM 26.1973 -80.1707 90° East  Level Estimated
04:50PM 26.1973 -80.1707 90° East  Level Estimated
04:51PM 26.1973 -80.1707 90° East  Level Estimated
04:52PM 26.1973 -80.1707 90° East  Level Estimated
04:53PM 26.1973 -80.1707 90° East  Level Estimated
04:54PM 26.1973 -80.1707 90° East  Level Estimated
04:55PM 26.1973 -80.1707 90° East  Level Estimated
04:56PM 26.1973 -80.1707 90° East  Level Estimated
04:57PM 26.1973 -80.1707 90° East  Level Estimated